Time;durP1;ratioP1;P1;durP2;ratioP2;P2;SDS_P1;SDS_P2;PMS_P1;PMS_P2;Temp;Humidity;BMP_temperature;BMP_pressure;BME280_temperature;BME280_humidity;BME280_pressure;Samples;Min_cycle;Max_cycle;Signal;HPM_P1;HPM_P2
2023/08/30 00:00:23;;;;;;;17.33;11.75;;;13.80;99.90;;;;;;4920990;29;20039;-71
2023/08/30 00:02:49;;;;;;;18.48;12.88;;;;;;;;;;4905488;29;20525;-71
2023/08/30 00:05:14;;;;;;;15.88;12.30;;;13.90;99.90;;;;;;4912129;29;20052;-71
2023/08/30 00:07:40;;;;;;;14.25;11.73;;;13.90;99.90;;;;;;4928607;29;20039;-71
2023/08/30 00:10:07;;;;;;;13.18;11.45;;;14.00;99.90;;;;;;4926910;29;20039;-70
2023/08/30 00:12:34;;;;;;;15.82;11.63;;;;;;;;;;4907621;29;20056;-70
2023/08/30 00:15:00;;;;;;;15.10;11.30;;;;;;;;;;4893481;29;20048;-70
2023/08/30 00:17:25;;;;;;;13.15;10.55;;;13.80;99.90;;;;;;4909499;29;20126;-71
2023/08/30 00:19:52;;;;;;;12.15;9.88;;;;;;;;;;4909444;29;20176;-71
2023/08/30 00:22:18;;;;;;;16.42;10.60;;;;;;;;;;4907113;29;20786;-71
2023/08/30 00:24:45;;;;;;;15.63;10.57;;;13.70;99.90;;;;;;4928724;29;20071;-71
2023/08/30 00:27:11;;;;;;;14.20;10.20;;;13.70;99.90;;;;;;4925663;29;20048;-71
2023/08/30 00:29:37;;;;;;;14.82;10.60;;;13.70;99.90;;;;;;4928750;29;20051;-71
2023/08/30 00:32:03;;;;;;;17.58;11.45;;;13.70;99.90;;;;;;4914408;29;20060;-71
2023/08/30 00:34:29;;;;;;;12.88;10.35;;;;;;;;;;4928680;29;20047;-71
2023/08/30 00:36:55;;;;;;;14.52;11.05;;;;;;;;;;4912903;29;20447;-71
2023/08/30 00:39:21;;;;;;;11.15;9.52;;;13.50;99.90;;;;;;4935784;29;20440;-71
2023/08/30 00:41:47;;;;;;;12.73;10.10;;;;;;;;;;4925876;29;20056;-71
2023/08/30 00:44:12;;;;;;;17.17;11.15;;;13.30;99.90;;;;;;4929820;29;20035;-71
2023/08/30 00:46:38;;;;;;;14.15;10.73;;;;;;;;;;4909344;29;20052;-71
2023/08/30 00:49:04;;;;;;;13.52;10.35;;;;;;;;;;4921396;29;20503;-71
2023/08/30 00:51:30;;;;;;;16.23;11.38;;;13.20;99.90;;;;;;4924928;29;20040;-71
2023/08/30 00:53:58;;;;;;;12.90;10.82;;;13.40;99.90;;;;;;4906823;29;20060;-71
2023/08/30 00:56:24;;;;;;;13.98;10.88;;;;;;;;;;4924963;29;20056;-71
2023/08/30 00:58:50;;;;;;;14.73;10.82;;;13.20;99.90;;;;;;4900088;29;20047;-71
2023/08/30 01:01:18;;;;;;;13.63;9.38;;;13.10;99.90;;;;;;4927394;29;20047;-71
2023/08/30 01:03:44;;;;;;;13.40;9.75;;;;;;;;;;4912354;29;20039;-71
2023/08/30 01:06:10;;;;;;;15.48;9.65;;;;;;;;;;4928751;29;20562;-70
2023/08/30 01:08:37;;;;;;;12.15;10.13;;;13.30;99.90;;;;;;4897239;29;20071;-71
2023/08/30 01:11:16;;;;;;;15.13;9.93;;;13.30;99.90;;;;;;4924534;29;20518;-71
2023/08/30 01:13:50;;;;;;;12.55;10.07;;;13.20;99.90;;;;;;4925746;29;20040;-70
2023/08/30 01:16:20;;;;;;;13.65;10.52;;;13.30;99.90;;;;;;4908959;29;20059;-71
2023/08/30 01:18:46;;;;;;;13.20;9.93;;;13.30;99.90;;;;;;4913727;29;20062;-71
2023/08/30 01:21:22;;;;;;;14.02;9.52;;;13.40;99.90;;;;;;4916384;29;20080;-71
2023/08/30 01:24:00;;;;;;;17.52;10.45;;;13.30;99.90;;;;;;4908983;29;20044;-71
2023/08/30 01:26:51;;;;;;;12.07;10.07;;;13.50;99.90;;;;;;4905806;29;20467;-71
2023/08/30 01:29:18;;;;;;;14.63;9.63;;;13.40;99.90;;;;;;4929571;29;20038;-71
2023/08/30 01:31:46;;;;;;;14.07;9.77;;;13.40;99.90;;;;;;4922462;29;20047;-71
2023/08/30 01:34:13;;;;;;;12.93;9.63;;;;;;;;;;4911949;29;20055;-70
2023/08/30 01:36:39;;;;;;;12.73;9.50;;;13.30;99.90;;;;;;4925618;29;20418;-71
2023/08/30 01:39:05;;;;;;;12.43;9.63;;;;;;;;;;4890742;29;20058;-71
2023/08/30 01:41:31;;;;;;;15.77;9.50;;;;;;;;;;4908788;29;20052;-69
2023/08/30 01:43:59;;;;;;;12.25;9.50;;;13.20;99.90;;;;;;4909446;29;20084;-71
2023/08/30 01:46:24;;;;;;;12.77;9.02;;;;;;;;;;4924619;29;20169;-70
2023/08/30 01:48:51;;;;;;;15.18;9.10;;;;;;;;;;4921939;29;20086;-71
2023/08/30 01:51:17;;;;;;;14.07;9.63;;;;;;;;;;4909949;29;20498;-71
2023/08/30 01:53:45;;;;;;;11.88;10.30;;;13.30;99.90;;;;;;4926404;29;20048;-71
2023/08/30 01:56:11;;;;;;;12.98;9.07;;;;;;;;;;4926795;29;20047;-70
2023/08/30 01:58:37;;;;;;;13.40;10.15;;;;;;;;;;4909411;29;20051;-71
2023/08/30 02:01:03;;;;;;;14.88;9.43;;;;;;;;;;4902629;29;20127;-70
2023/08/30 02:03:29;;;;;;;13.00;9.73;;;;;;;;;;4904632;29;20135;-71
2023/08/30 02:06:04;;;;;;;12.32;9.70;;;;;;;;;;4922641;29;20787;-71
2023/08/30 02:08:42;;;;;;;15.68;9.85;;;13.20;99.90;;;;;;4907770;29;20515;-71
2023/08/30 02:11:14;;;;;;;13.80;9.70;;;13.30;99.90;;;;;;4926783;29;20817;-70
2023/08/30 02:13:41;;;;;;;15.40;10.38;;;;;;;;;;4922462;29;20119;-70
2023/08/30 02:16:09;;;;;;;13.02;9.48;;;13.10;99.90;;;;;;4924550;29;20553;-69
2023/08/30 02:18:36;;;;;;;13.73;11.05;;;;;;;;;;4907443;29;20056;-70
2023/08/30 02:21:02;;;;;;;13.90;9.77;;;;;;;;;;4928457;29;20218;-70
2023/08/30 02:23:28;;;;;;;13.73;10.48;;;;;;;;;;4926484;29;20130;-70
2023/08/30 02:25:55;;;;;;;13.52;9.80;;;12.80;99.90;;;;;;4911785;29;20475;-71
2023/08/30 02:28:22;;;;;;;13.30;10.38;;;;;;;;;;4921915;29;20058;-70
2023/08/30 02:30:48;;;;;;;17.35;9.68;;;;;;;;;;4913629;29;20126;-70
2023/08/30 02:33:14;;;;;;;15.20;10.23;;;;;;;;;;4891358;29;20059;-70
2023/08/30 02:35:40;;;;;;;16.98;10.20;;;;;;;;;;4924824;29;20047;-70
2023/08/30 02:38:07;;;;;;;15.23;10.75;;;;;;;;;;4914098;29;20596;-69
2023/08/30 02:40:32;;;;;;;15.52;10.48;;;12.80;99.90;;;;;;4927276;29;20062;-70
2023/08/30 02:42:58;;;;;;;17.30;10.70;;;;;;;;;;4929762;29;20047;-71
2023/08/30 02:45:24;;;;;;;19.25;10.32;;;;;;;;;;4910152;29;20044;-70
2023/08/30 02:47:50;;;;;;;14.25;9.93;;;;;;;;;;4927670;29;20170;-71
2023/08/30 02:50:16;;;;;;;17.00;11.02;;;;;;;;;;4908683;29;20036;-70
2023/08/30 02:52:42;;;;;;;15.50;11.18;;;;;;;;;;4910714;29;20388;-71
2023/08/30 02:55:08;;;;;;;15.43;10.48;;;;;;;;;;4908707;29;20503;-70
2023/08/30 02:57:34;;;;;;;19.42;12.13;;;;;;;;;;4922140;29;20078;-71
2023/08/30 03:00:00;;;;;;;15.95;10.85;;;;;;;;;;4904300;29;20388;-71
2023/08/30 03:02:26;;;;;;;14.98;10.45;;;;;;;;;;4909401;29;20043;-71
2023/08/30 03:04:52;;;;;;;14.15;10.70;;;;;;;;;;4910108;29;20442;-70
2023/08/30 03:07:18;;;;;;;15.25;11.00;;;;;;;;;;4909261;29;20168;-70
2023/08/30 03:09:44;;;;;;;17.92;11.93;;;;;;;;;;4928056;29;20048;-70
2023/08/30 03:12:10;;;;;;;15.02;11.38;;;;;;;;;;4927388;29;20445;-70
2023/08/30 03:14:36;;;;;;;14.02;10.95;;;;;;;;;;4928242;29;20052;-70
2023/08/30 03:17:02;;;;;;;13.07;10.68;;;;;;;;;;4928334;29;20043;-70
2023/08/30 03:19:28;;;;;;;16.35;11.18;;;;;;;;;;4926289;29;20140;-71
2023/08/30 03:21:54;;;;;;;16.63;10.65;;;;;;;;;;4908626;29;20168;-71
2023/08/30 03:24:19;;;;;;;14.38;10.88;;;12.80;99.90;;;;;;4905064;29;20055;-71
2023/08/30 03:26:45;;;;;;;16.67;11.52;;;;;;;;;;4927416;29;20192;-71
2023/08/30 03:29:11;;;;;;;13.60;10.52;;;12.70;99.90;;;;;;4930122;29;20478;-71
2023/08/30 03:31:37;;;;;;;12.90;10.45;;;;;;;;;;4911140;29;20044;-71
2023/08/30 03:34:03;;;;;;;12.32;10.45;;;;;;;;;;4927124;29;20080;-71
2023/08/30 03:36:29;;;;;;;14.20;10.18;;;;;;;;;;4908140;29;20048;-70
2023/08/30 03:38:55;;;;;;;14.13;10.90;;;;;;;;;;4912183;29;20054;-70
2023/08/30 03:41:21;;;;;;;15.80;10.55;;;;;;;;;;4928330;29;20063;-71
2023/08/30 03:43:47;;;;;;;15.40;10.60;;;;;;;;;;4905619;29;20376;-69
2023/08/30 03:46:13;;;;;;;14.95;10.68;;;;;;;;;;4910620;29;20052;-71
2023/08/30 03:48:39;;;;;;;14.82;10.63;;;;;;;;;;4910295;29;20052;-71
2023/08/30 03:51:05;;;;;;;17.42;10.27;;;;;;;;;;4909873;29;20052;-71
2023/08/30 03:53:31;;;;;;;13.05;9.88;;;;;;;;;;4894107;29;20051;-70
2023/08/30 03:55:56;;;;;;;15.15;10.95;;;12.90;99.90;;;;;;4910068;29;20053;-71
2023/08/30 03:58:22;;;;;;;12.95;9.75;;;;;;;;;;4933343;29;20048;-70
2023/08/30 04:00:48;;;;;;;14.93;10.43;;;;;;;;;;4933242;29;20047;-70
2023/08/30 04:03:15;;;;;;;14.35;8.98;;;;;;;;;;4936450;29;20099;-71
2023/08/30 04:05:41;;;;;;;17.15;10.40;;;;;;;;;;4931570;29;20142;-70
2023/08/30 04:08:08;;;;;;;13.63;10.05;;;;;;;;;;4909313;29;20036;-70
2023/08/30 04:10:41;;;;;;;16.42;10.20;;;13.00;99.90;;;;;;4934203;29;20130;-70
2023/08/30 04:13:08;;;;;;;12.00;9.80;;;13.00;99.90;;;;;;4933496;29;20082;-70
2023/08/30 04:15:38;;;;;;;14.52;9.65;;;12.90;99.90;;;;;;4911007;29;20573;-70
2023/08/30 04:18:05;;;;;;;13.65;9.85;;;;;;;;;;4932749;29;20061;-70
2023/08/30 04:20:32;;;;;;;14.02;9.57;;;;;;;;;;4915897;29;20086;-70
2023/08/30 04:22:59;;;;;;;11.90;9.10;;;;;;;;;;4911634;29;20074;-71
2023/08/30 04:25:25;;;;;;;13.98;8.93;;;;;;;;;;4912660;29;20060;-71
2023/08/30 04:27:51;;;;;;;13.50;9.70;;;;;;;;;;4911224;29;20126;-70
2023/08/30 04:30:17;;;;;;;12.52;9.32;;;13.00;99.90;;;;;;4932432;29;20075;-70
2023/08/30 04:32:43;;;;;;;15.30;9.15;;;;;;;;;;4910720;29;20058;-70
2023/08/30 04:35:09;;;;;;;14.27;10.07;;;13.20;99.90;;;;;;4934407;29;20410;-71
2023/08/30 04:37:35;;;;;;;12.70;9.00;;;;;;;;;;4932520;29;20039;-70
2023/08/30 04:40:03;;;;;;;15.35;9.73;;;13.20;99.90;;;;;;4923832;29;20082;-71
2023/08/30 04:42:29;;;;;;;13.48;9.02;;;;;;;;;;4937212;29;20040;-71
2023/08/30 04:44:55;;;;;;;15.00;9.60;;;;;;;;;;4913081;29;20111;-70
2023/08/30 04:47:22;;;;;;;14.18;9.57;;;;;;;;;;4931979;29;20122;-71
2023/08/30 04:49:54;;;;;;;16.77;9.27;;;13.40;99.90;;;;;;4933383;29;20051;-70
2023/08/30 04:52:20;;;;;;;14.32;10.35;;;;;;;;;;4914173;29;20896;-70
2023/08/30 04:54:46;;;;;;;16.05;10.30;;;;;;;;;;4932341;29;20106;-71
2023/08/30 04:57:16;;;;;;;16.77;10.68;;;13.40;99.90;;;;;;4932962;29;20039;-70
2023/08/30 04:59:42;;;;;;;16.90;10.30;;;13.30;99.90;;;;;;4907755;29;20056;-70
2023/08/30 05:02:07;;;;;;;13.98;10.38;;;13.40;99.90;;;;;;4915544;29;20051;-71
2023/08/30 05:04:33;;;;;;;14.20;9.75;;;;;;;;;;4931237;29;20052;-70
2023/08/30 05:06:59;;;;;;;14.80;10.45;;;13.30;99.90;;;;;;4945349;29;20035;-71
2023/08/30 05:09:25;;;;;;;14.88;10.45;;;;;;;;;;4917142;29;20054;-71
2023/08/30 05:11:51;;;;;;;21.60;11.48;;;13.30;99.90;;;;;;4912782;29;20055;-69
2023/08/30 05:14:17;;;;;;;15.20;9.88;;;;;;;;;;4927260;29;20044;-71
2023/08/30 05:16:43;;;;;;;16.48;10.48;;;13.50;99.90;;;;;;4914070;29;20048;-70
2023/08/30 05:19:09;;;;;;;15.95;9.70;;;;;;;;;;4926114;29;20380;-70
2023/08/30 05:21:36;;;;;;;14.73;10.77;;;;;;;;;;4934675;29;20047;-71
2023/08/30 05:24:02;;;;;;;15.15;9.82;;;;;;;;;;4925872;29;20558;-70
2023/08/30 05:26:28;;;;;;;14.88;10.45;;;;;;;;;;4932606;29;20056;-71
2023/08/30 05:28:54;;;;;;;14.52;10.82;;;;;;;;;;4935094;29;20047;-70
2023/08/30 05:31:20;;;;;;;15.23;9.93;;;13.30;99.90;;;;;;4934014;29;20075;-70
2023/08/30 05:33:46;;;;;;;15.20;10.45;;;;;;;;;;4902284;29;20102;-71
2023/08/30 05:36:11;;;;;;;14.75;10.48;;;13.10;99.90;;;;;;4908790;29;20089;-72
2023/08/30 05:38:37;;;;;;;14.13;9.77;;;;;;;;;;4913708;29;20055;-71
2023/08/30 05:41:04;;;;;;;16.33;10.27;;;;;;;;;;4927581;29;20494;-73
2023/08/30 05:43:30;;;;;;;15.45;10.77;;;;;;;;;;4928549;29;20064;-73
2023/08/30 05:46:01;;;;;;;15.65;10.43;;;;;;;;;;4910431;29;20066;-73
2023/08/30 05:48:27;;;;;;;15.30;10.10;;;;;;;;;;4925935;29;20048;-72
2023/08/30 05:50:53;;;;;;;14.48;9.98;;;;;;;;;;4914574;29;20040;-75
2023/08/30 05:53:19;;;;;;;16.20;11.00;;;;;;;;;;4909651;29;20471;-75
2023/08/30 05:55:45;;;;;;;14.23;10.07;;;;;;;;;;4911863;29;20047;-77
2023/08/30 05:58:11;;;;;;;16.77;11.18;;;;;;;;;;4905268;29;20082;-72
2023/08/30 06:00:37;;;;;;;15.48;9.27;;;;;;;;;;4935473;29;20126;-71
2023/08/30 06:03:04;;;;;;;14.65;10.30;;;;;;;;;;4927826;29;20147;-73
2023/08/30 06:05:30;;;;;;;15.75;10.75;;;;;;;;;;4923740;29;20079;-74
2023/08/30 06:07:57;;;;;;;17.25;11.98;;;;;;;;;;4929256;29;20079;-73
2023/08/30 06:10:23;;;;;;;16.80;10.50;;;13.40;99.90;;;;;;4905344;29;20090;-74
2023/08/30 06:12:49;;;;;;;16.17;10.70;;;;;;;;;;4911887;29;20544;-76
2023/08/30 06:15:15;;;;;;;14.93;9.75;;;13.50;99.90;;;;;;4892526;29;20040;-74
2023/08/30 06:17:41;;;;;;;17.08;10.10;;;;;;;;;;4928705;28;20032;-74
2023/08/30 06:20:07;;;;;;;14.68;9.60;;;13.60;99.90;;;;;;4927851;29;20043;-75
2023/08/30 06:22:33;;;;;;;16.17;10.48;;;;;;;;;;4933508;29;20036;-74
2023/08/30 06:24:59;;;;;;;15.40;10.65;;;;;;;;;;4928683;29;20066;-73
2023/08/30 06:27:25;;;;;;;17.00;9.95;;;;;;;;;;4931803;29;20118;-74
2023/08/30 06:29:53;;;;;;;16.52;9.65;;;;;;;;;;4913522;29;20048;-78
2023/08/30 06:32:19;;;;;;;11.63;8.43;;;;;;;;;;4911839;29;20045;-75
2023/08/30 06:34:45;;;;;;;15.48;9.88;;;;;;;;;;4909228;29;20052;-74
2023/08/30 06:37:11;;;;;;;16.05;9.68;;;;;;;;;;4910927;29;20733;-73
2023/08/30 06:39:37;;;;;;;15.00;9.90;;;;;;;;;;4912136;29;20050;-71
2023/08/30 06:42:04;;;;;;;14.45;9.35;;;;;;;;;;4922370;29;20118;-72
2023/08/30 06:44:30;;;;;;;14.52;9.02;;;;;;;;;;4906922;29;20109;-73
2023/08/30 06:46:58;;;;;;;14.57;9.70;;;14.00;99.90;;;;;;4915330;29;20174;-72
2023/08/30 06:49:25;;;;;;;14.68;8.85;;;;;;;;;;4913278;29;20851;-75
2023/08/30 06:51:51;;;;;;;17.38;9.65;;;;;;;;;;4928711;29;20113;-75
2023/08/30 06:54:17;;;;;;;14.52;9.90;;;;;;;;;;4928628;29;20082;-72
2023/08/30 06:57:00;;;;;;;13.40;9.30;;;14.20;99.90;;;;;;4929421;29;20585;-73
2023/08/30 06:59:26;;;;;;;14.98;9.82;;;;;;;;;;4928701;29;20438;-73
2023/08/30 07:01:52;;;;;;;14.20;8.95;;;;;;;;;;4922479;29;20467;-76
2023/08/30 07:04:19;;;;;;;16.10;9.57;;;;;;;;;;4897703;29;20090;-77
2023/08/30 07:06:45;;;;;;;14.82;9.60;;;;;;;;;;4892946;29;20040;-75
2023/08/30 07:09:11;;;;;;;15.35;9.15;;;;;;;;;;4904255;29;20826;-73
2023/08/30 07:11:37;;;;;;;14.10;8.25;;;14.10;99.90;;;;;;4931111;29;20049;-72
2023/08/30 07:14:03;;;;;;;11.95;8.25;;;;;;;;;;4931160;29;20047;-73
2023/08/30 07:16:31;;;;;;;12.93;8.82;;;;;;;;;;4905231;29;20052;-72
2023/08/30 07:18:57;;;;;;;13.20;8.65;;;;;;;;;;4913572;29;20150;-77
2023/08/30 07:21:23;;;;;;;12.93;8.57;;;;;;;;;;4904299;29;20764;-73
2023/08/30 07:23:49;;;;;;;14.32;9.25;;;;;;;;;;4910269;29;20058;-73
2023/08/30 07:26:15;;;;;;;14.25;9.02;;;;;;;;;;4921775;29;20051;-76
2023/08/30 07:28:45;;;;;;;16.15;8.60;;;15.00;99.90;;;;;;4917173;29;20048;-76
2023/08/30 07:31:15;;;;;;;14.05;9.10;;;;;;;;;;4906337;29;20513;-75
2023/08/30 07:33:41;;;;;;;13.75;8.93;;;;;;;;;;4910370;29;20127;-74
2023/08/30 07:36:08;;;;;;;13.32;8.18;;;;;;;;;;4916928;29;20086;-74
2023/08/30 07:38:34;;;;;;;13.25;8.40;;;;;;;;;;4925604;29;20187;-75
2023/08/30 07:41:03;;;;;;;14.07;8.10;;;;;;;;;;4895354;29;20055;-80
2023/08/30 07:43:29;;;;;;;16.90;8.75;;;;;;;;;;4901976;29;20051;-82
2023/08/30 07:45:56;;;;;;;15.25;8.25;;;;;;;;;;4913014;29;20051;-78
2023/08/30 07:48:22;;;;;;;12.68;7.95;;;;;;;;;;4914367;29;20085;-78
2023/08/30 07:50:48;;;;;;;12.95;7.88;;;;;;;;;;4924234;29;20413;-76
2023/08/30 07:53:14;;;;;;;11.52;7.90;;;;;;;;;;4911955;29;20051;-73
2023/08/30 07:55:40;;;;;;;14.15;8.65;;;;;;;;;;4915158;29;20157;-73
2023/08/30 07:58:09;;;;;;;15.15;8.35;;;;;;;;;;4909459;29;20051;-76
2023/08/30 08:00:34;;;;;;;10.68;7.30;;;15.30;99.90;;;;;;4895925;29;20063;-73
2023/08/30 08:03:00;;;;;;;11.88;8.30;;;;;;;;;;4895028;29;20047;-77
2023/08/30 08:05:26;;;;;;;10.10;7.45;;;;;;;;;;4908560;29;20054;-80
2023/08/30 08:08:01;;;;;;;11.75;7.93;;;15.30;99.90;;;;;;4900315;29;21056;-79
2023/08/30 08:10:36;;;;;;;12.48;7.35;;;15.60;99.90;;;;;;4895201;29;20067;-77
2023/08/30 08:13:12;;;;;;;14.30;8.85;;;;;;;;;;4916080;29;20047;-78
2023/08/30 08:15:38;;;;;;;14.05;7.50;;;;;;;;;;4918474;29;20075;-78
2023/08/30 08:18:07;;;;;;;13.27;7.80;;;;;;;;;;4910075;29;20067;-77
2023/08/30 08:20:45;;;;;;;12.70;7.97;;;;;;;;;;4900468;29;20672;-80
2023/08/30 08:23:11;;;;;;;12.68;7.90;;;;;;;;;;4901797;29;20127;-77
2023/08/30 08:25:43;;;;;;;12.10;7.82;;;15.20;99.90;;;;;;4932966;29;20062;-76
2023/08/30 08:28:09;;;;;;;10.60;7.85;;;;;;;;;;4930733;29;20507;-79
2023/08/30 08:30:41;;;;;;;13.30;8.25;;;15.30;99.90;;;;;;4902981;29;20099;-81
2023/08/30 08:33:07;;;;;;;11.65;7.95;;;;;;;;;;4940426;29;20051;-83
2023/08/30 08:35:33;;;;;;;13.82;7.95;;;;;;;;;;4906238;29;20134;-77
2023/08/30 08:37:59;;;;;;;14.63;8.50;;;;;;;;;;4925561;28;20043;-77
2023/08/30 08:40:25;;;;;;;13.35;8.63;;;;;;;;;;4913241;29;20557;-74
2023/08/30 08:42:51;;;;;;;14.57;8.73;;;;;;;;;;4914252;29;20141;-76
2023/08/30 08:45:20;;;;;;;12.35;8.07;;;;;;;;;;4919836;29;20089;-78
2023/08/30 08:47:46;;;;;;;13.15;8.25;;;;;;;;;;4916574;29;20086;-76
2023/08/30 08:50:12;;;;;;;13.05;8.50;;;;;;;;;;4927458;29;20043;-75
2023/08/30 08:52:38;;;;;;;17.55;8.68;;;;;;;;;;4899784;29;20099;-76
2023/08/30 08:55:04;;;;;;;14.93;8.63;;;;;;;;;;4912328;29;20052;-75
2023/08/30 08:57:31;;;;;;;14.70;8.20;;;;;;;;;;4915030;29;20064;-78
2023/08/30 08:59:57;;;;;;;13.00;7.93;;;;;;;;;;4892023;29;20070;-75
2023/08/30 09:02:26;;;;;;;14.73;8.70;;;15.00;99.90;;;;;;4926637;29;20458;-80
2023/08/30 09:04:52;;;;;;;14.25;8.48;;;14.90;99.90;;;;;;4900124;29;20048;-74
2023/08/30 09:07:19;;;;;;;12.88;8.80;;;;;;;;;;4922319;29;20035;-76
2023/08/30 09:09:45;;;;;;;12.90;8.45;;;;;;;;;;4912520;29;20082;-75
2023/08/30 09:12:11;;;;;;;11.77;8.40;;;;;;;;;;4898943;29;20058;-74
2023/08/30 09:14:37;;;;;;;12.07;7.10;;;;;;;;;;4894316;29;21120;-72
2023/08/30 09:17:03;;;;;;;10.30;7.75;;;;;;;;;;4939824;29;20055;-79
2023/08/30 09:19:30;;;;;;;10.85;6.70;;;;;;;;;;4914352;29;20076;-76
2023/08/30 09:21:59;;;;;;;9.23;6.30;;;15.10;99.90;;;;;;4910143;29;20064;-79
2023/08/30 09:24:26;;;;;;;10.88;6.78;;;;;;;;;;4933770;29;20039;-78
2023/08/30 09:26:52;;;;;;;9.40;6.30;;;;;;;;;;4895688;29;20064;-76
2023/08/30 09:29:20;;;;;;;10.73;6.28;;;15.00;99.90;;;;;;4895089;29;20580;-74
2023/08/30 09:31:46;;;;;;;11.30;6.97;;;;;;;;;;4927581;29;20043;-76
2023/08/30 09:34:12;;;;;;;8.85;6.57;;;;;;;;;;4907269;29;20057;-75
2023/08/30 09:36:38;;;;;;;11.30;7.38;;;;;;;;;;4904898;29;20154;-74
2023/08/30 09:39:06;;;;;;;10.60;7.40;;;15.00;99.90;;;;;;4913045;29;20421;-74
2023/08/30 09:41:33;;;;;;;12.82;7.75;;;;;;;;;;4908105;29;20056;-76
2023/08/30 09:44:00;;;;;;;11.00;7.70;;;;;;;;;;4910842;29;20563;-75
2023/08/30 09:46:26;;;;;;;13.75;7.35;;;;;;;;;;4911515;29;20051;-77
2023/08/30 09:48:54;;;;;;;11.63;6.65;;;15.30;99.90;;;;;;4913035;29;20043;-74
2023/08/30 09:51:20;;;;;;;11.38;7.10;;;;;;;;;;4912988;29;20051;-75
2023/08/30 09:53:54;;;;;;;11.75;7.35;;;15.30;99.90;;;;;;4905753;29;20052;-75
2023/08/30 09:56:28;;;;;;;9.70;7.07;;;15.50;99.90;;;;;;4903822;29;20125;-77
2023/08/30 09:58:54;;;;;;;9.80;6.83;;;;;;;;;;4913772;29;20054;-73
2023/08/30 10:01:20;;;;;;;9.98;6.63;;;;;;;;;;4908376;29;20048;-73
2023/08/30 10:03:47;;;;;;;8.30;5.95;;;15.10;99.90;;;;;;4930453;29;20110;-78
2023/08/30 10:06:16;;;;;;;7.20;4.88;;;;;;;;;;4893545;29;20900;-77
2023/08/30 10:08:42;;;;;;;10.27;6.38;;;15.30;99.90;;;;;;4896865;29;20071;-72
2023/08/30 10:11:09;;;;;;;7.28;5.20;;;15.40;99.90;;;;;;4915790;29;20120;-75
2023/08/30 10:13:42;;;;;;;8.88;5.72;;;15.20;99.90;;;;;;4904793;29;20056;-74
2023/08/30 10:16:12;;;;;;;10.02;6.80;;;15.10;99.90;;;;;;4908320;29;20047;-73
2023/08/30 10:25:01;;;;;;;12.55;7.22;;;15.40;99.90;;;;;;5277633;23;20066;-75
2023/08/30 10:27:27;;;;;;;10.07;6.68;;;;;;;;;;4949067;28;20039;-77
2023/08/30 10:29:53;;;;;;;11.70;6.68;;;;;;;;;;4934220;28;20915;-77
2023/08/30 10:32:21;;;;;;;10.50;6.22;;;15.30;99.90;;;;;;4950740;28;20133;-77
2023/08/30 10:34:51;;;;;;;11.13;5.95;;;15.20;99.90;;;;;;4915542;29;20059;-78
2023/08/30 10:37:22;;;;;;;8.80;5.35;;;15.40;99.90;;;;;;4918383;29;20356;-75
2023/08/30 10:39:49;;;;;;;9.95;5.22;;;;;;;;;;4904544;29;20067;-75
2023/08/30 10:42:16;;;;;;;7.47;4.93;;;15.10;99.90;;;;;;4914794;29;20802;-75
2023/08/30 10:44:50;;;;;;;6.75;5.35;;;15.10;99.90;;;;;;4916257;29;20528;-75
2023/08/30 10:47:20;;;;;;;7.32;4.78;;;15.10;99.90;;;;;;4924470;29;20052;-75
2023/08/30 10:49:47;;;;;;;7.53;5.55;;;15.30;99.90;;;;;;4906275;29;20048;-74
2023/08/30 10:52:13;;;;;;;7.15;4.65;;;;;;;;;;4924308;29;20058;-74
2023/08/30 10:58:19;;;;;;;8.60;4.90;;;;;;;;;;4857505;29;20826;-74
2023/08/30 11:00:45;;;;;;;7.88;5.28;;;;;;;;;;4940085;29;20043;-75
2023/08/30 11:03:11;;;;;;;9.85;5.78;;;;;;;;;;4940494;29;20048;-74
2023/08/30 11:05:40;;;;;;;10.00;6.57;;;15.30;99.90;;;;;;4941340;29;20054;-73
2023/08/30 11:08:10;;;;;;;8.30;6.15;;;15.10;99.90;;;;;;4917455;29;20510;-73
2023/08/30 11:10:36;;;;;;;11.05;6.40;;;;;;;;;;4939338;29;20050;-75
2023/08/30 11:13:03;;;;;;;7.85;6.03;;;;;;;;;;4906375;29;20043;-78
2023/08/30 11:15:29;;;;;;;8.88;5.70;;;;;;;;;;4915750;29;20045;-73
2023/08/30 11:21:44;;;;;;;6.50;5.38;;;15.30;99.90;;;;;;4935566;29;20166;-76
2023/08/30 11:24:11;;;;;;;;;;;15.20;99.90;;;;;;4920563;29;20130;-76
2023/08/30 11:26:36;;;;;;;9.18;6.43;;;15.10;99.90;;;;;;4932284;29;19925;-76
2023/08/30 11:29:09;;;;;;;9.35;6.43;;;15.20;99.90;;;;;;4930874;29;20035;-76
2023/08/30 11:31:35;;;;;;;8.40;6.45;;;;;;;;;;4923487;29;20046;-76
2023/08/30 11:34:01;;;;;;;8.45;6.70;;;;;;;;;;4924868;29;20721;-76
2023/08/30 11:36:31;;;;;;;12.00;7.22;;;15.30;99.90;;;;;;4918978;29;20131;-76
2023/08/30 11:38:57;;;;;;;11.73;7.28;;;15.20;99.90;;;;;;4920611;29;20134;-76
2023/08/30 11:41:25;;;;;;;11.60;7.20;;;15.30;99.90;;;;;;4935126;29;20039;-75
2023/08/30 11:43:51;;;;;;;12.68;7.55;;;15.10;99.90;;;;;;4940942;29;20059;-76
2023/08/30 11:46:17;;;;;;;12.57;8.77;;;15.30;99.90;;;;;;4924483;29;20043;-75
2023/08/30 11:48:45;;;;;;;13.68;8.55;;;15.00;99.90;;;;;;4924982;29;20420;-75
2023/08/30 11:51:11;;;;;;;12.00;8.15;;;;;;;;;;4928005;29;20505;-76
2023/08/30 11:53:38;;;;;;;10.77;8.15;;;14.80;99.90;;;;;;4925174;29;20047;-76
2023/08/30 11:56:05;;;;;;;14.40;9.52;;;15.10;99.90;;;;;;4928183;29;20778;-75
2023/08/30 11:58:35;;;;;;;11.52;8.68;;;15.00;99.90;;;;;;4938987;29;20074;-76
2023/08/30 12:01:02;;;;;;;14.77;9.23;;;15.10;99.90;;;;;;4913104;29;20044;-76
2023/08/30 12:03:28;;;;;;;13.07;8.32;;;15.00;99.90;;;;;;4939783;29;20061;-76
2023/08/30 12:05:54;;;;;;;17.80;10.48;;;;;;;;;;4918550;29;20094;-76
2023/08/30 12:08:28;;;;;;;15.45;9.77;;;14.90;99.90;;;;;;4940986;29;20053;-76
2023/08/30 12:10:55;;;;;;;13.18;9.13;;;15.10;99.90;;;;;;4937328;29;20074;-75
2023/08/30 12:13:28;;;;;;;14.35;9.93;;;15.10;99.90;;;;;;4923808;28;20047;-76
2023/08/30 12:15:57;;;;;;;13.35;9.80;;;15.00;99.90;;;;;;4944037;29;20050;-76
2023/08/30 12:18:32;;;;;;;13.43;9.15;;;14.80;99.90;;;;;;4930826;29;20054;-76
2023/08/30 12:21:00;;;;;;;15.40;11.02;;;14.80;99.90;;;;;;4942264;29;20036;-76
2023/08/30 12:23:27;;;;;;;12.85;9.75;;;14.80;99.90;;;;;;4941335;29;20052;-76
2023/08/30 12:26:07;;;;;;;15.48;9.98;;;14.80;99.90;;;;;;4939701;29;20058;-76
2023/08/30 12:28:35;;;;;;;15.25;9.63;;;14.60;99.90;;;;;;4925222;29;20055;-75
2023/08/30 12:31:03;;;;;;;16.05;9.52;;;14.80;99.90;;;;;;4944948;29;20383;-76
2023/08/30 12:33:29;;;;;;;12.35;8.95;;;;;;;;;;4926040;29;20499;-74
2023/08/30 12:35:56;;;;;;;13.52;9.57;;;;;;;;;;4930288;29;20097;-76
2023/08/30 12:38:22;;;;;;;13.07;10.15;;;;;;;;;;4921417;29;20051;-76
2023/08/30 12:40:50;;;;;;;12.73;9.20;;;14.70;99.90;;;;;;4919324;29;20058;-76
2023/08/30 12:43:17;;;;;;;11.88;9.27;;;14.90;99.90;;;;;;4942893;29;20047;-76
2023/08/30 12:45:43;;;;;;;13.20;9.48;;;14.70;99.90;;;;;;4942740;29;20173;-76
2023/08/30 12:48:11;;;;;;;11.63;8.32;;;14.60;99.90;;;;;;4923737;29;20051;-75
2023/08/30 12:50:38;;;;;;;10.48;8.75;;;14.60;99.90;;;;;;4947429;29;20054;-76
2023/08/30 12:53:07;;;;;;;10.75;8.32;;;14.80;99.90;;;;;;4909654;29;20163;-76
2023/08/30 12:55:34;;;;;;;14.77;8.23;;;;;;;;;;4943201;29;20514;-76
2023/08/30 12:58:00;;;;;;;12.82;7.88;;;14.80;99.90;;;;;;4928077;29;20051;-75
2023/08/30 13:00:26;;;;;;;13.75;9.18;;;;;;;;;;4921635;29;20087;-76
2023/08/30 13:02:52;;;;;;;10.32;8.13;;;;;;;;;;4918649;29;20088;-75
2023/08/30 13:05:18;;;;;;;11.30;8.43;;;14.70;99.90;;;;;;4922226;29;20044;-75
2023/08/30 13:07:44;;;;;;;10.23;8.05;;;14.90;99.90;;;;;;4921049;29;20050;-75
2023/08/30 13:10:10;;;;;;;11.45;8.73;;;14.80;99.90;;;;;;4937399;29;20035;-75
2023/08/30 13:12:36;;;;;;;11.00;8.63;;;;;;;;;;4922476;29;20078;-75
2023/08/30 13:15:03;;;;;;;11.15;8.07;;;15.00;99.90;;;;;;4944813;29;20533;-76
2023/08/30 13:17:29;;;;;;;10.75;7.85;;;;;;;;;;4923013;29;20521;-75
2023/08/30 13:19:56;;;;;;;9.20;6.60;;;15.00;99.90;;;;;;4940451;29;20091;-76
2023/08/30 13:22:22;;;;;;;9.27;7.13;;;;;;;;;;4915652;29;20122;-76
2023/08/30 13:24:48;;;;;;;8.82;7.38;;;;;;;;;;4942102;28;20057;-76
2023/08/30 13:27:14;;;;;;;6.28;5.40;;;;;;;;;;4926548;29;20057;-75
2023/08/30 13:29:40;;;;;;;6.97;5.60;;;;;;;;;;4920838;29;20415;-74
2023/08/30 13:32:06;;;;;;;6.22;5.03;;;;;;;;;;4919995;29;20051;-76
2023/08/30 13:34:32;;;;;;;6.70;5.55;;;;;;;;;;4936431;29;20055;-76
2023/08/30 13:36:58;;;;;;;4.35;3.65;;;;;;;;;;4945617;29;20039;-76
2023/08/30 13:39:24;;;;;;;4.65;3.40;;;;;;;;;;4938396;29;20098;-75
2023/08/30 13:41:50;;;;;;;4.30;3.55;;;;;;;;;;4942785;29;20478;-76
2023/08/30 13:44:16;;;;;;;5.10;3.70;;;;;;;;;;4923813;29;20049;-76
2023/08/30 13:46:43;;;;;;;4.43;3.63;;;15.40;99.90;;;;;;4945655;29;20050;-75
2023/08/30 13:49:10;;;;;;;5.00;3.83;;;15.60;99.90;;;;;;4929236;29;20587;-76
2023/08/30 13:51:36;;;;;;;4.88;2.90;;;15.60;99.90;;;;;;4929770;29;20098;-76
2023/08/30 13:54:02;;;;;;;3.33;2.88;;;;;;;;;;4930205;29;20502;-75